Ana Sayfa
METAR-TAF:

METAR-TAF

Havaalanları :

McKinley Park, Alaska, Amerika Birleşik Devletleri

Enlem: 63-44N, Boylam: 148-55W, yükseklik: 524 m

Güncel hava durumu gözlemi

Rapor saat 11:56 UTC de 39 dakika önce yapıldı.
Sakin rüzgar
Sıcaklık -12°C
Nem 85%
Basınç 1018 hPa
Görüş mesafesi: 16.1 km
10000 ft yükseklikte çok bulutlu

METAR: PAIN 141156Z AUTO 00000KT 10SM OVC100 M12/M14 A3007 RMK AO2 SLP220 T11171139 11061 21117 51015 FZRANO

Saat: 04:35 (12:35 UTC)


TAF: eksik

4.000'den fazla havaalanı için hava durumu gözlemleri ve tahminleri (METAR ve TAF raporları).

Kullanılabilir istasyonlar harita üzerinde sarı ve kırmızı noktalarla gösterilir.

İstasyonun adını görmek için fareyi noktanın üzerinde gezdirin.

Sonrasında hava gözlem ve tahminlerini görmek için tıklayın.

Haritayı değiştirmek için: yaklaştırmak için siyah artı işaretli yeşil düğmeye ve uzaklaştırmak için de eksi işaretli düğmeye hızla tıklayın; bitişik haritalar için yeşil okları kullanın.


METAR-TAF: